Terminal Aerodrome Forecast
Issued by NWS

Home | Current Version | Previous Version | Text Only | Print | Product List | Glossary On
Versions: 1 2 3 4 5 6 7 8 9 10 11 12 13 14 15
000
FTUS43 KEAX 290946 AAA
TAFMKC
TAF AMD
KMKC 290946Z 2910/3006 05014KT 3SM SHRA BR VCTS OVC003CB
     FM291800 04020KT 2SM -SHRA BR VCTS OVC008CB
     FM300000 05014KT 2SM BR VCSH OVC003=

USA.gov is the U.S. government's official web portal to all federal, state and local government web resources and services.